createdAt,value
2019-05-06T00:01:04.795Z,81.90
2019-05-06T00:03:34.338Z,82.30
2019-05-06T00:06:03.959Z,82.20
2019-05-06T00:08:34.526Z,82.40
2019-05-06T00:11:02.477Z,82.70
2019-05-06T00:13:31.388Z,82.80
2019-05-06T00:15:59.641Z,82.50
2019-05-06T00:18:27.894Z,82.30
2019-05-06T00:20:57.575Z,82.60
2019-05-06T00:23:27.714Z,82.70
2019-05-06T00:26:06.410Z,82.70
2019-05-06T00:28:45.209Z,82.40
2019-05-06T00:31:16.603Z,83.30
2019-05-06T00:33:45.132Z,83.10
2019-05-06T00:36:14.185Z,84.20
2019-05-06T00:38:44.761Z,84.10
2019-05-06T00:44:06.373Z,83.50
2019-05-06T00:46:54.612Z,83.40
2019-05-06T00:49:23.851Z,83.60
2019-05-06T00:51:52.309Z,83.30
2019-05-06T00:54:25.120Z,83.30
2019-05-06T00:56:54.093Z,83.50
2019-05-06T00:59:23.857Z,83.70
2019-05-06T01:01:53.874Z,83.80
2019-05-06T01:04:24.370Z,84.00
2019-05-06T01:06:54.291Z,84.00
2019-05-06T01:09:23.806Z,84.10
2019-05-06T01:11:54.215Z,84.30
2019-05-06T01:14:24.420Z,84.30
2019-05-06T01:16:54.613Z,84.70
2019-05-06T01:19:23.577Z,85.50
2019-05-06T01:21:53.874Z,85.80
2019-05-06T01:24:23.753Z,86.30
2019-05-06T01:26:53.635Z,86.00
2019-05-06T01:29:23.879Z,86.40
2019-05-06T01:31:54.217Z,87.00
2019-05-06T01:34:21.819Z,87.10
2019-05-06T01:36:50.076Z,86.90
2019-05-06T01:42:34.407Z,87.90
2019-05-06T01:45:04.668Z,87.10
2019-05-06T01:47:34.583Z,87.50
2019-05-06T01:50:04.501Z,87.80
2019-05-06T01:52:34.454Z,88.00
2019-05-06T01:55:04.826Z,88.50
2019-05-06T01:57:33.840Z,88.80
2019-05-06T02:00:04.707Z,89.20
2019-05-06T02:02:34.214Z,89.80
2019-05-06T02:05:04.568Z,90.20
2019-05-06T02:07:32.246Z,90.40
2019-05-06T02:10:00.584Z,90.60
2019-05-06T02:12:28.841Z,90.40
2019-05-06T02:14:57.160Z,90.50
2019-05-06T02:17:25.421Z,90.40
2019-05-06T02:19:54.657Z,89.60
2019-05-06T02:22:41.340Z,89.20
2019-05-06T02:25:34.169Z,89.40
2019-05-06T02:28:03.958Z,89.00
2019-05-06T02:30:45.383Z,89.10
2019-05-06T02:33:15.354Z,89.30
2019-05-06T02:35:45.716Z,89.30
2019-05-06T02:38:15.618Z,89.00
2019-05-06T02:40:43.877Z,89.50
2019-05-06T02:43:13.574Z,89.40
2019-05-06T02:45:43.301Z,89.60
2019-05-06T02:48:14.005Z,89.20
2019-05-06T02:53:36.482Z,89.40
2019-05-06T02:56:04.790Z,88.80
2019-05-06T02:58:33.212Z,88.20
2019-05-06T03:01:03.619Z,88.80
2019-05-06T03:03:33.743Z,89.80
2019-05-06T03:06:03.799Z,90.40
2019-05-06T03:08:32.871Z,91.10
2019-05-06T03:11:03.999Z,92.40
2019-05-06T03:13:33.891Z,92.90
2019-05-06T03:16:05.283Z,92.70
2019-05-06T03:18:32.712Z,93.50
2019-05-06T03:21:03.808Z,94.20
2019-05-06T03:23:56.297Z,94.20
2019-05-06T03:26:24.537Z,94.40
2019-05-06T03:28:53.538Z,94.50
2019-05-06T03:31:26.139Z,94.00
2019-05-06T03:34:21.848Z,93.90
2019-05-06T03:36:34.912Z,93.60
2019-05-06T03:38:57.826Z,94.00
2019-05-06T03:41:26.661Z,93.90
2019-05-06T03:43:55.520Z,93.90
2019-05-06T03:46:42.965Z,93.60
2019-05-06T03:49:13.468Z,93.90
2019-05-06T03:51:42.939Z,94.20
2019-05-06T03:54:12.821Z,94.60
2019-05-06T03:56:43.287Z,95.80
2019-05-06T03:59:13.318Z,95.50
2019-05-06T04:01:42.973Z,95.30
2019-05-06T04:04:12.690Z,95.40
2019-05-06T04:06:43.725Z,95.20
2019-05-06T04:09:33.545Z,95.50
2019-05-06T04:12:03.635Z,94.20
2019-05-06T04:14:33.664Z,92.20
2019-05-06T04:17:13.231Z,89.60
2019-05-06T04:19:43.766Z,87.80
2019-05-06T04:25:13.931Z,86.70
2019-05-06T04:27:53.456Z,87.20
2019-05-06T04:30:24.364Z,87.70
2019-05-06T04:32:53.161Z,88.70
2019-05-06T04:35:22.929Z,89.20
2019-05-06T04:37:53.787Z,89.30
2019-05-06T04:40:23.889Z,89.40
2019-05-06T04:42:52.776Z,89.50
2019-05-06T04:45:23.554Z,89.70
2019-05-06T04:47:53.701Z,89.30
2019-05-06T04:50:23.892Z,88.90
2019-05-06T04:53:04.995Z,88.90
2019-05-06T04:55:55.637Z,90.70
2019-05-06T04:58:23.882Z,90.60
2019-05-06T05:00:53.092Z,85.50
2019-05-06T05:03:22.763Z,85.60
2019-05-06T05:05:52.983Z,84.40
2019-05-06T05:08:23.287Z,82.90
2019-05-06T05:11:05.109Z,81.80
2019-05-06T05:16:42.106Z,79.80
2019-05-06T05:19:12.199Z,79.60
2019-05-06T05:21:42.711Z,80.60
2019-05-06T05:24:12.009Z,82.40
2019-05-06T05:26:45.060Z,72.50
2019-05-06T05:29:12.323Z,67.90
2019-05-06T05:31:40.825Z,67.20
2019-05-06T05:34:09.078Z,69.10
2019-05-06T05:36:37.345Z,62.10
2019-05-06T05:39:06.455Z,54.80
2019-05-06T05:41:34.717Z,53.20
2019-05-06T05:44:04.608Z,54.10
2019-05-06T05:46:33.088Z,56.90
2019-05-06T05:49:03.237Z,59.80
2019-05-06T05:51:32.025Z,62.50
2019-05-06T05:54:02.210Z,62.40
2019-05-06T05:56:32.717Z,60.50
2019-05-06T05:59:03.026Z,59.60
2019-05-06T06:01:32.698Z,59.30
2019-05-06T06:04:03.037Z,59.40
2019-05-06T06:06:32.978Z,58.50
2019-05-06T06:09:00.542Z,60.00
2019-05-06T06:17:09.309Z,64.20
2019-05-06T06:19:39.193Z,66.70
2019-05-06T06:22:09.089Z,66.50
2019-05-06T06:24:37.396Z,67.20
2019-05-06T06:27:05.650Z,66.80
2019-05-06T06:29:33.892Z,65.70
2019-05-06T06:32:06.746Z,65.30
2019-05-06T06:37:34.086Z,65.00
2019-05-06T06:40:04.097Z,65.30
2019-05-06T06:42:33.510Z,65.50
2019-05-06T06:45:03.456Z,65.50
2019-05-06T06:47:32.094Z,65.90
2019-05-06T06:50:02.622Z,66.20
2019-05-06T06:52:32.408Z,66.50
2019-05-06T06:55:02.279Z,67.30
2019-05-06T06:57:34.677Z,66.80
2019-05-06T07:00:22.146Z,65.70
2019-05-06T07:03:02.584Z,67.10
2019-05-06T07:05:35.051Z,66.80
2019-05-06T07:08:03.373Z,66.50
2019-05-06T07:10:43.674Z,66.60
2019-05-06T07:13:13.449Z,66.50
2019-05-06T07:15:42.675Z,65.50
2019-05-06T07:18:13.494Z,64.30
2019-05-06T07:20:54.598Z,63.80
2019-05-06T07:23:32.517Z,61.80
2019-05-06T07:26:02.863Z,61.30
2019-05-06T07:28:32.457Z,61.20
2019-05-06T07:31:14.955Z,61.30
2019-05-06T07:33:30.405Z,58.90
2019-05-06T07:35:58.649Z,58.50
2019-05-06T07:38:26.918Z,59.60
2019-05-06T07:40:56.796Z,59.00
2019-05-06T07:43:33.897Z,55.70
2019-05-06T07:46:06.861Z,55.50
2019-05-06T07:48:35.117Z,55.30
2019-05-06T07:51:03.370Z,55.70
2019-05-06T07:53:32.145Z,53.50
2019-05-06T07:56:03.561Z,53.90
2019-05-06T07:58:32.269Z,52.10
2019-05-06T08:01:02.709Z,51.60
2019-05-06T08:03:32.820Z,52.50
2019-05-06T08:06:02.656Z,51.90
2019-05-06T08:08:32.903Z,48.80
2019-05-06T08:11:02.688Z,47.00
2019-05-06T08:13:32.318Z,49.50
2019-05-06T08:16:02.280Z,47.90
2019-05-06T08:18:32.815Z,46.90
2019-05-06T08:21:02.539Z,46.60
2019-05-06T08:23:44.893Z,44.60
2019-05-06T08:26:17.344Z,47.70
2019-05-06T08:28:44.551Z,47.10
2019-05-06T08:31:12.977Z,47.40
2019-05-06T08:33:43.154Z,46.90
2019-05-06T08:36:14.932Z,47.00
2019-05-06T08:38:59.488Z,46.60
2019-05-06T08:41:27.729Z,45.30
2019-05-06T08:43:56.049Z,45.20
2019-05-06T08:46:24.292Z,46.60
2019-05-06T08:48:52.765Z,43.70
2019-05-06T08:51:42.611Z,44.30
2019-05-06T08:54:13.362Z,46.30
2019-05-06T08:56:42.689Z,44.40
2019-05-06T08:59:11.328Z,42.40
2019-05-06T09:01:46.860Z,44.20
2019-05-06T09:04:16.291Z,42.10
2019-05-06T09:06:45.117Z,39.90
2019-05-06T09:09:13.374Z,41.70
2019-05-06T09:11:43.103Z,42.20
2019-05-06T09:14:13.751Z,42.40
2019-05-06T09:16:43.780Z,44.70
2019-05-06T09:19:12.930Z,46.00
2019-05-06T09:21:45.689Z,45.60
2019-05-06T09:24:12.830Z,42.00
2019-05-06T09:26:46.001Z,40.90
2019-05-06T09:29:18.981Z,39.80
2019-05-06T09:31:48.868Z,38.00
2019-05-06T09:34:24.768Z,38.90
2019-05-06T09:37:13.382Z,39.30
2019-05-06T09:39:43.217Z,41.50
2019-05-06T09:42:12.865Z,43.40
2019-05-06T09:44:42.853Z,44.30
2019-05-06T09:47:13.011Z,45.00
2019-05-06T09:49:43.005Z,46.70
2019-05-06T09:52:12.996Z,47.00
2019-05-06T09:54:45.842Z,46.20
2019-05-06T09:57:18.464Z,47.60
2019-05-06T09:59:46.732Z,48.30
2019-05-06T10:02:14.993Z,46.80
2019-05-06T10:04:43.245Z,45.80
2019-05-06T10:07:11.897Z,43.70
2019-05-06T10:09:43.209Z,45.20
2019-05-06T10:12:12.561Z,43.90
2019-05-06T10:14:43.293Z,44.50
2019-05-06T10:17:13.221Z,44.80
2019-05-06T10:19:42.971Z,43.70
2019-05-06T10:22:12.671Z,41.10
2019-05-06T10:24:43.120Z,41.80
2019-05-06T10:27:12.109Z,39.10
2019-05-06T10:29:58.928Z,38.40
2019-05-06T10:32:28.820Z,38.20
2019-05-06T10:34:57.075Z,37.40
2019-05-06T10:37:33.542Z,36.40
2019-05-06T10:40:04.292Z,35.90
2019-05-06T10:42:35.785Z,35.90
2019-05-06T10:45:28.124Z,34.90
2019-05-06T10:47:56.725Z,36.50
2019-05-06T10:50:25.804Z,35.80
2019-05-06T10:53:07.728Z,37.70
2019-05-06T10:55:37.665Z,37.40
2019-05-06T10:58:05.909Z,39.30
2019-05-06T11:00:34.175Z,39.90
2019-05-06T11:03:16.148Z,42.50
2019-05-06T11:05:44.410Z,43.60
2019-05-06T11:08:12.661Z,45.80
2019-05-06T11:10:44.698Z,46.30
2019-05-06T11:13:12.833Z,44.50
2019-05-06T11:15:43.157Z,42.50
2019-05-06T11:18:13.554Z,41.80
2019-05-06T11:20:43.459Z,42.50
2019-05-06T11:23:10.877Z,42.70
2019-05-06T11:25:39.133Z,42.70
2019-05-06T11:28:09.017Z,43.50
2019-05-06T11:30:38.909Z,40.30
2019-05-06T11:36:07.193Z,42.30
2019-05-06T11:38:35.441Z,41.10
2019-05-06T11:41:03.717Z,40.60
2019-05-06T11:43:32.498Z,40.40
2019-05-06T11:46:01.151Z,40.90
2019-05-06T11:48:29.401Z,43.90
2019-05-06T11:50:59.298Z,46.70
2019-05-06T11:53:27.549Z,47.80
2019-05-06T11:55:55.881Z,47.60
2019-05-06T11:58:42.894Z,48.80
2019-05-06T12:01:13.599Z,49.50
2019-05-06T12:04:02.665Z,49.20
2019-05-06T12:06:33.025Z,49.20
2019-05-06T12:09:06.082Z,48.20
2019-05-06T12:11:31.277Z,48.30
2019-05-06T12:13:59.517Z,47.70
2019-05-06T12:16:27.779Z,46.40
2019-05-06T12:18:59.265Z,46.80
2019-05-06T12:21:26.025Z,44.90
2019-05-06T12:23:54.357Z,44.80
2019-05-06T12:26:22.613Z,45.30
2019-05-06T12:28:52.941Z,45.80
2019-05-06T12:31:23.091Z,45.10
2019-05-06T12:33:53.075Z,44.40
2019-05-06T12:36:22.070Z,44.30
2019-05-06T12:39:08.242Z,45.20
2019-05-06T12:41:38.223Z,44.80
2019-05-06T12:44:06.468Z,44.00
2019-05-06T12:46:36.373Z,45.00
2019-05-06T12:49:05.362Z,45.80
2019-05-06T12:51:33.609Z,45.10
2019-05-06T12:54:03.503Z,45.80
2019-05-06T12:56:31.846Z,46.70
2019-05-06T12:59:19.527Z,46.00
2019-05-06T13:01:47.860Z,45.50
2019-05-06T13:04:16.125Z,46.00
2019-05-06T13:06:46.191Z,46.50
2019-05-06T13:09:14.423Z,44.50
2019-05-06T13:11:43.254Z,44.30
2019-05-06T13:14:12.774Z,43.60
2019-05-06T13:16:42.557Z,43.90
2019-05-06T13:19:12.124Z,45.40
2019-05-06T13:21:42.259Z,43.90
2019-05-06T13:24:12.192Z,44.90
2019-05-06T13:26:43.060Z,45.70
2019-05-06T13:29:13.165Z,45.00
2019-05-06T13:31:43.573Z,59.90
2019-05-06T13:34:13.095Z,68.80
2019-05-06T13:36:42.896Z,54.00
2019-05-06T13:39:15.043Z,46.50
2019-05-06T13:41:42.219Z,43.70
2019-05-06T13:44:13.219Z,45.20
2019-05-06T13:46:43.272Z,44.60
2019-05-06T13:49:22.888Z,45.50
2019-05-06T13:52:03.495Z,45.60
2019-05-06T13:54:29.080Z,45.10
2019-05-06T13:56:57.709Z,44.90
2019-05-06T13:59:29.830Z,42.30
2019-05-06T14:02:16.418Z,43.00
2019-05-06T14:04:45.013Z,43.80
2019-05-06T14:07:13.359Z,42.80
2019-05-06T14:09:43.582Z,43.50
2019-05-06T14:12:11.571Z,43.40
2019-05-06T14:14:39.812Z,43.80
2019-05-06T14:17:08.097Z,43.00
2019-05-06T14:19:36.340Z,42.70
2019-05-06T14:22:04.598Z,42.00
2019-05-06T14:24:33.816Z,42.10
2019-05-06T14:27:03.711Z,41.40
2019-05-06T14:29:33.588Z,41.20
2019-05-06T14:32:02.318Z,40.00
2019-05-06T14:34:32.524Z,40.30
2019-05-06T14:37:00.537Z,40.90
2019-05-06T14:39:47.507Z,40.00
2019-05-06T14:42:03.961Z,39.50
2019-05-06T14:44:32.512Z,40.50
2019-05-06T14:47:04.946Z,39.90
2019-05-06T14:49:33.189Z,39.60
2019-05-06T14:52:02.640Z,39.70
2019-05-06T14:54:33.082Z,39.80
2019-05-06T14:57:08.644Z,40.30
2019-05-06T14:59:36.889Z,40.40
2019-05-06T15:02:05.156Z,39.50
2019-05-06T15:04:33.397Z,40.60
2019-05-06T15:07:02.260Z,41.70
2019-05-06T15:09:32.931Z,42.70
2019-05-06T15:12:02.337Z,41.00
2019-05-06T15:14:33.138Z,42.00
2019-05-06T15:17:02.271Z,41.40
2019-05-06T15:19:30.776Z,40.70
2019-05-06T15:21:59.028Z,42.20
2019-05-06T15:24:27.278Z,40.50
2019-05-06T15:26:55.535Z,41.60
2019-05-06T15:29:23.933Z,39.20
2019-05-06T15:31:56.693Z,40.70
2019-05-06T15:34:33.411Z,40.10
2019-05-06T15:37:09.357Z,40.80
2019-05-06T15:39:37.597Z,38.50
2019-05-06T15:42:05.873Z,39.60
2019-05-06T15:44:35.424Z,40.20
2019-05-06T15:47:03.841Z,41.10
2019-05-06T15:49:32.403Z,38.90
2019-05-06T15:52:03.448Z,39.90
2019-05-06T15:54:32.243Z,40.30
2019-05-06T15:57:00.742Z,38.70
2019-05-06T15:59:30.139Z,39.20
2019-05-06T16:01:58.381Z,40.30
2019-05-06T16:04:26.651Z,40.10
2019-05-06T16:06:54.888Z,40.00
2019-05-06T16:09:23.567Z,40.70
2019-05-06T16:11:53.377Z,42.40
2019-05-06T16:14:23.022Z,43.00
2019-05-06T16:16:52.759Z,42.60
2019-05-06T16:19:22.831Z,45.20
2019-05-06T16:21:52.382Z,44.70
2019-05-06T16:24:42.836Z,45.70
2019-05-06T16:27:12.268Z,47.00
2019-05-06T16:29:42.660Z,45.50
2019-05-06T16:32:10.758Z,45.60
2019-05-06T16:34:42.931Z,45.30
2019-05-06T16:37:12.702Z,45.90
2019-05-06T16:39:41.217Z,45.70
2019-05-06T16:42:12.726Z,46.40
2019-05-06T16:44:45.094Z,46.90
2019-05-06T16:47:12.747Z,46.20
2019-05-06T16:49:42.275Z,45.30
2019-05-06T16:52:12.949Z,46.10
2019-05-06T16:54:42.533Z,44.90
2019-05-06T16:57:13.599Z,45.40
2019-05-06T16:59:42.443Z,44.60
2019-05-06T17:02:13.966Z,44.40
2019-05-06T17:07:22.199Z,44.30
2019-05-06T17:09:52.488Z,44.40
2019-05-06T17:12:21.935Z,44.90
2019-05-06T17:14:52.809Z,45.90
2019-05-06T17:17:22.888Z,45.90
2019-05-06T17:19:52.876Z,45.60
2019-05-06T17:22:22.944Z,46.00
2019-05-06T17:24:52.898Z,45.00
2019-05-06T17:27:23.421Z,46.40
2019-05-06T17:30:04.914Z,45.80
2019-05-06T17:32:34.809Z,45.00
2019-05-06T17:35:03.540Z,46.10
2019-05-06T17:37:52.698Z,48.00
2019-05-06T17:40:22.980Z,48.70
2019-05-06T17:42:53.299Z,47.70
2019-05-06T17:45:39.462Z,48.00
2019-05-06T17:48:23.226Z,49.40
2019-05-06T17:51:09.446Z,49.90
2019-05-06T17:53:42.576Z,50.80
2019-05-06T17:56:12.565Z,51.80
2019-05-06T17:58:42.317Z,50.70
2019-05-06T18:01:12.602Z,51.80
2019-05-06T18:03:41.188Z,52.30
2019-05-06T18:06:14.029Z,52.60
2019-05-06T18:08:39.482Z,53.80
2019-05-06T18:11:07.757Z,53.80
2019-05-06T18:13:36.015Z,53.50
2019-05-06T18:16:04.266Z,53.80
2019-05-06T18:18:32.517Z,54.10
2019-05-06T18:21:02.754Z,55.10
2019-05-06T18:23:33.405Z,55.80
2019-05-06T18:26:03.028Z,55.70
2019-05-06T18:28:32.670Z,56.10
2019-05-06T18:31:03.124Z,56.50
2019-05-06T18:33:32.583Z,57.30
2019-05-06T18:36:02.598Z,57.20
2019-05-06T18:38:32.905Z,57.70
2019-05-06T18:41:02.013Z,58.00
2019-05-06T18:43:32.658Z,59.00
2019-05-06T18:46:02.600Z,59.80
2019-05-06T18:48:32.913Z,59.80
2019-05-06T18:51:02.808Z,60.60
2019-05-06T18:53:32.588Z,61.80
2019-05-06T18:56:00.295Z,61.70
2019-05-06T18:58:28.541Z,62.60
2019-05-06T19:00:56.798Z,62.60
2019-05-06T19:03:26.698Z,62.20
2019-05-06T19:05:54.961Z,63.10
2019-05-06T19:08:32.824Z,63.10
2019-05-06T19:11:02.452Z,62.80
2019-05-06T19:13:32.945Z,63.00
2019-05-06T19:16:02.096Z,63.40
2019-05-06T19:18:30.529Z,64.50
2019-05-06T19:20:58.784Z,65.20
2019-05-06T19:23:27.025Z,64.90
2019-05-06T19:25:55.281Z,63.50
2019-05-06T19:28:23.546Z,63.00
2019-05-06T19:30:54.076Z,63.10
2019-05-06T19:33:21.766Z,62.00
2019-05-06T19:35:52.181Z,62.70
2019-05-06T19:38:21.682Z,63.40
2019-05-06T19:40:52.173Z,63.00
2019-05-06T19:43:21.845Z,62.70
2019-05-06T19:45:49.926Z,62.60
2019-05-06T19:48:18.177Z,62.20
2019-05-06T19:50:46.565Z,62.20
2019-05-06T19:53:14.850Z,61.70
2019-05-06T19:55:46.673Z,62.00
2019-05-06T19:58:13.085Z,61.90
2019-05-06T20:00:42.034Z,62.70
2019-05-06T20:03:12.292Z,61.80
2019-05-06T20:05:45.288Z,63.80
2019-05-06T20:08:23.138Z,63.10
2019-05-06T20:11:02.305Z,63.30
2019-05-06T20:13:32.259Z,64.30
2019-05-06T20:16:02.266Z,64.00
2019-05-06T20:18:32.729Z,65.10
2019-05-06T20:21:00.726Z,64.00
2019-05-06T20:23:28.968Z,62.80
2019-05-06T20:25:57.232Z,61.60
2019-05-06T20:28:25.475Z,62.00
2019-05-06T20:30:53.796Z,61.20
2019-05-06T20:33:22.136Z,61.00
2019-05-06T20:35:52.400Z,61.00
2019-05-06T20:38:20.432Z,61.00
2019-05-06T20:40:48.701Z,60.10
2019-05-06T20:43:20.687Z,60.30
2019-05-06T20:45:46.977Z,60.60
2019-05-06T20:48:15.234Z,61.20
2019-05-06T20:50:43.471Z,60.90
2019-05-06T20:53:12.278Z,61.20
2019-05-06T20:55:43.114Z,61.80
2019-05-06T20:58:12.249Z,60.90
2019-05-06T21:00:42.678Z,61.50
2019-05-06T21:03:12.261Z,61.30
2019-05-06T21:05:43.193Z,61.40
2019-05-06T21:08:12.871Z,62.10
2019-05-06T21:10:42.498Z,61.60
2019-05-06T21:13:13.096Z,61.80
2019-05-06T21:15:42.970Z,61.80
2019-05-06T21:18:12.094Z,62.90
2019-05-06T21:20:40.648Z,63.20
2019-05-06T21:23:08.903Z,62.20
2019-05-06T21:25:37.136Z,62.40
2019-05-06T21:28:05.403Z,62.90
2019-05-06T21:30:33.652Z,63.10
2019-05-06T21:33:01.915Z,63.60
2019-05-06T21:35:30.149Z,63.90
2019-05-06T21:37:58.406Z,64.20
2019-05-06T21:40:26.652Z,65.50
2019-05-06T21:42:54.905Z,66.40
2019-05-06T21:45:23.209Z,66.60
2019-05-06T21:47:53.034Z,66.90
2019-05-06T21:50:22.800Z,67.50
2019-05-06T21:52:51.464Z,66.10
2019-05-06T21:55:22.714Z,67.40
2019-05-06T21:57:52.990Z,67.60
2019-05-06T22:00:23.392Z,67.60
2019-05-06T22:02:52.988Z,68.20
2019-05-06T22:05:22.657Z,68.80
2019-05-06T22:07:52.608Z,67.90
2019-05-06T22:10:23.077Z,67.50
2019-05-06T22:12:52.668Z,68.20
2019-05-06T22:15:22.791Z,68.50
2019-05-06T22:17:54.321Z,68.40
2019-05-06T22:20:23.625Z,68.10
2019-05-06T22:22:52.055Z,69.80
2019-05-06T22:25:22.087Z,69.70
2019-05-06T22:27:51.939Z,69.80
2019-05-06T22:30:23.686Z,70.50
2019-05-06T22:32:52.573Z,70.40
2019-05-06T22:35:22.891Z,69.80
2019-05-06T22:37:52.743Z,70.40
2019-05-06T22:40:23.547Z,69.90
2019-05-06T22:42:52.606Z,69.50
2019-05-06T22:45:22.251Z,69.90
2019-05-06T22:47:50.296Z,70.10
2019-05-06T22:50:18.547Z,70.20
2019-05-06T22:52:46.805Z,70.40
2019-05-06T22:55:15.058Z,70.70
2019-05-06T22:57:43.304Z,70.70
2019-05-06T23:00:15.391Z,71.70
2019-05-06T23:02:45.253Z,72.00
2019-05-06T23:05:13.508Z,71.10
2019-05-06T23:07:42.306Z,71.70
2019-05-06T23:10:10.796Z,72.30
2019-05-06T23:12:39.045Z,72.10
2019-05-06T23:15:07.316Z,72.50
2019-05-06T23:17:35.557Z,72.20
2019-05-06T23:20:05.053Z,73.10
2019-05-06T23:22:33.302Z,73.40
2019-05-06T23:25:02.341Z,73.80
2019-05-06T23:27:31.005Z,73.60
2019-05-06T23:29:59.307Z,74.10
2019-05-06T23:32:27.567Z,73.30
2019-05-06T23:34:55.835Z,73.70
2019-05-06T23:37:23.481Z,74.00
2019-05-06T23:40:30.228Z,73.70
2019-05-06T23:43:34.924Z,74.00
2019-05-06T23:46:39.710Z,74.00
2019-05-06T23:49:44.453Z,74.20
2019-05-06T23:52:49.172Z,74.50
2019-05-06T23:55:54.148Z,73.70
2019-05-06T23:58:22.490Z,73.90
